sensor_id;sensor_type;location;lat;lon;timestamp;P1;durP1;ratioP1;P2;durP2;ratioP2
10458;SDS011;5277;48.722;8.736;2022-12-07T00:01:38;6.70;;;3.60;;
10458;SDS011;5277;48.722;8.736;2022-12-07T00:04:08;5.23;;;3.73;;
10458;SDS011;5277;48.722;8.736;2022-12-07T00:06:42;4.47;;;3.50;;
10458;SDS011;5277;48.722;8.736;2022-12-07T00:09:16;5.10;;;4.07;;
10458;SDS011;5277;48.722;8.736;2022-12-07T00:11:46;7.23;;;3.60;;
10458;SDS011;5277;48.722;8.736;2022-12-07T00:14:16;5.33;;;3.77;;
10458;SDS011;5277;48.722;8.736;2022-12-07T00:16:45;5.67;;;3.90;;
10458;SDS011;5277;48.722;8.736;2022-12-07T00:19:15;6.30;;;4.03;;
10458;SDS011;5277;48.722;8.736;2022-12-07T00:21:41;5.57;;;4.30;;
10458;SDS011;5277;48.722;8.736;2022-12-07T00:24:22;5.47;;;4.00;;
10458;SDS011;5277;48.722;8.736;2022-12-07T00:26:51;7.53;;;4.07;;
10458;SDS011;5277;48.722;8.736;2022-12-07T00:29:20;6.83;;;4.37;;
10458;SDS011;5277;48.722;8.736;2022-12-07T00:31:49;5.47;;;3.93;;
10458;SDS011;5277;48.722;8.736;2022-12-07T00:34:16;4.10;;;3.17;;
10458;SDS011;5277;48.722;8.736;2022-12-07T00:36:49;6.57;;;3.47;;
10458;SDS011;5277;48.722;8.736;2022-12-07T00:39:15;5.67;;;3.93;;
10458;SDS011;5277;48.722;8.736;2022-12-07T00:41:43;4.93;;;3.83;;
10458;SDS011;5277;48.722;8.736;2022-12-07T00:44:09;5.10;;;3.60;;
10458;SDS011;5277;48.722;8.736;2022-12-07T00:46:37;5.67;;;4.03;;
10458;SDS011;5277;48.722;8.736;2022-12-07T00:49:08;4.60;;;3.60;;
10458;SDS011;5277;48.722;8.736;2022-12-07T00:51:34;4.53;;;3.23;;
10458;SDS011;5277;48.722;8.736;2022-12-07T00:54:02;6.47;;;3.90;;
10458;SDS011;5277;48.722;8.736;2022-12-07T00:56:38;9.73;;;4.17;;
10458;SDS011;5277;48.722;8.736;2022-12-07T00:59:06;6.17;;;4.30;;
10458;SDS011;5277;48.722;8.736;2022-12-07T01:01:32;5.60;;;3.80;;
10458;SDS011;5277;48.722;8.736;2022-12-07T01:04:06;6.17;;;4.10;;
10458;SDS011;5277;48.722;8.736;2022-12-07T01:06:34;7.50;;;5.17;;
10458;SDS011;5277;48.722;8.736;2022-12-07T01:09:05;10.77;;;4.57;;
10458;SDS011;5277;48.722;8.736;2022-12-07T01:11:41;5.73;;;4.40;;
10458;SDS011;5277;48.722;8.736;2022-12-07T01:14:15;7.13;;;4.23;;
10458;SDS011;5277;48.722;8.736;2022-12-07T01:16:43;5.93;;;4.47;;
10458;SDS011;5277;48.722;8.736;2022-12-07T01:19:17;5.77;;;4.83;;
10458;SDS011;5277;48.722;8.736;2022-12-07T01:21:56;7.13;;;4.53;;
10458;SDS011;5277;48.722;8.736;2022-12-07T01:24:30;8.50;;;4.73;;
10458;SDS011;5277;48.722;8.736;2022-12-07T01:27:01;5.07;;;4.13;;
10458;SDS011;5277;48.722;8.736;2022-12-07T01:29:29;5.90;;;4.30;;
10458;SDS011;5277;48.722;8.736;2022-12-07T01:31:58;8.83;;;4.70;;
10458;SDS011;5277;48.722;8.736;2022-12-07T01:34:23;7.60;;;3.87;;
10458;SDS011;5277;48.722;8.736;2022-12-07T01:36:49;6.20;;;4.10;;
10458;SDS011;5277;48.722;8.736;2022-12-07T01:39:17;5.40;;;3.93;;
10458;SDS011;5277;48.722;8.736;2022-12-07T01:41:43;5.30;;;4.00;;
10458;SDS011;5277;48.722;8.736;2022-12-07T01:46:43;12.90;;;4.70;;
10458;SDS011;5277;48.722;8.736;2022-12-07T01:49:18;4.50;;;3.47;;
10458;SDS011;5277;48.722;8.736;2022-12-07T01:51:56;5.73;;;4.30;;
10458;SDS011;5277;48.722;8.736;2022-12-07T01:54:27;8.00;;;3.97;;
10458;SDS011;5277;48.722;8.736;2022-12-07T01:56:58;8.83;;;4.30;;
10458;SDS011;5277;48.722;8.736;2022-12-07T01:59:31;5.63;;;4.10;;
10458;SDS011;5277;48.722;8.736;2022-12-07T02:02:03;5.97;;;4.50;;
10458;SDS011;5277;48.722;8.736;2022-12-07T02:04:33;6.00;;;4.47;;
10458;SDS011;5277;48.722;8.736;2022-12-07T02:07:03;5.53;;;3.97;;
10458;SDS011;5277;48.722;8.736;2022-12-07T02:09:32;4.93;;;3.87;;
10458;SDS011;5277;48.722;8.736;2022-12-07T02:12:01;5.57;;;4.10;;
10458;SDS011;5277;48.722;8.736;2022-12-07T02:14:33;7.97;;;3.83;;
10458;SDS011;5277;48.722;8.736;2022-12-07T02:17:12;5.47;;;4.20;;
10458;SDS011;5277;48.722;8.736;2022-12-07T02:22:49;5.60;;;4.03;;
10458;SDS011;5277;48.722;8.736;2022-12-07T02:28:46;5.63;;;3.87;;
10458;SDS011;5277;48.722;8.736;2022-12-07T02:31:26;4.77;;;3.77;;
10458;SDS011;5277;48.722;8.736;2022-12-07T02:34:04;5.90;;;4.17;;
10458;SDS011;5277;48.722;8.736;2022-12-07T02:36:52;7.77;;;4.17;;
10458;SDS011;5277;48.722;8.736;2022-12-07T02:39:28;7.43;;;4.70;;
10458;SDS011;5277;48.722;8.736;2022-12-07T02:42:02;5.33;;;4.40;;
10458;SDS011;5277;48.722;8.736;2022-12-07T02:44:35;5.27;;;4.10;;
10458;SDS011;5277;48.722;8.736;2022-12-07T02:47:02;5.73;;;4.20;;
10458;SDS011;5277;48.722;8.736;2022-12-07T02:49:33;6.37;;;3.90;;
10458;SDS011;5277;48.722;8.736;2022-12-07T02:52:00;5.07;;;3.83;;
10458;SDS011;5277;48.722;8.736;2022-12-07T02:54:26;4.40;;;3.70;;
10458;SDS011;5277;48.722;8.736;2022-12-07T02:59:29;4.63;;;3.77;;
10458;SDS011;5277;48.722;8.736;2022-12-07T03:02:04;6.03;;;3.43;;
10458;SDS011;5277;48.722;8.736;2022-12-07T03:10:54;6.70;;;4.20;;
10458;SDS011;5277;48.722;8.736;2022-12-07T03:13:33;6.37;;;4.20;;
10458;SDS011;5277;48.722;8.736;2022-12-07T03:16:30;5.97;;;3.87;;
10458;SDS011;5277;48.722;8.736;2022-12-07T03:19:08;7.77;;;4.37;;
10458;SDS011;5277;48.722;8.736;2022-12-07T03:21:51;8.27;;;4.37;;
10458;SDS011;5277;48.722;8.736;2022-12-07T03:24:42;5.23;;;3.77;;
10458;SDS011;5277;48.722;8.736;2022-12-07T03:27:24;7.23;;;3.90;;
10458;SDS011;5277;48.722;8.736;2022-12-07T03:30:37;6.33;;;4.13;;
10458;SDS011;5277;48.722;8.736;2022-12-07T03:35:25;5.83;;;3.87;;
10458;SDS011;5277;48.722;8.736;2022-12-07T03:38:00;6.03;;;4.30;;
10458;SDS011;5277;48.722;8.736;2022-12-07T03:40:43;7.10;;;3.63;;
10458;SDS011;5277;48.722;8.736;2022-12-07T03:43:28;6.00;;;4.00;;
10458;SDS011;5277;48.722;8.736;2022-12-07T03:46:00;6.17;;;3.90;;
10458;SDS011;5277;48.722;8.736;2022-12-07T03:48:48;6.07;;;4.37;;
10458;SDS011;5277;48.722;8.736;2022-12-07T03:51:41;5.43;;;4.23;;
10458;SDS011;5277;48.722;8.736;2022-12-07T03:54:16;6.97;;;4.03;;
10458;SDS011;5277;48.722;8.736;2022-12-07T03:56:46;6.03;;;4.03;;
10458;SDS011;5277;48.722;8.736;2022-12-07T03:59:13;6.60;;;3.73;;
10458;SDS011;5277;48.722;8.736;2022-12-07T04:01:44;7.33;;;3.83;;
10458;SDS011;5277;48.722;8.736;2022-12-07T04:04:15;6.67;;;3.90;;
10458;SDS011;5277;48.722;8.736;2022-12-07T04:06:42;7.87;;;3.50;;
10458;SDS011;5277;48.722;8.736;2022-12-07T04:09:07;5.90;;;3.83;;
10458;SDS011;5277;48.722;8.736;2022-12-07T04:11:33;4.93;;;3.63;;
10458;SDS011;5277;48.722;8.736;2022-12-07T04:13:58;7.80;;;3.60;;
10458;SDS011;5277;48.722;8.736;2022-12-07T04:16:42;5.57;;;3.43;;
10458;SDS011;5277;48.722;8.736;2022-12-07T04:19:08;6.03;;;4.10;;
10458;SDS011;5277;48.722;8.736;2022-12-07T04:21:33;4.83;;;3.37;;
10458;SDS011;5277;48.722;8.736;2022-12-07T04:23:59;5.27;;;3.90;;
10458;SDS011;5277;48.722;8.736;2022-12-07T04:26:24;4.67;;;3.60;;
10458;SDS011;5277;48.722;8.736;2022-12-07T04:28:50;7.07;;;3.97;;
10458;SDS011;5277;48.722;8.736;2022-12-07T04:31:15;4.97;;;3.70;;
10458;SDS011;5277;48.722;8.736;2022-12-07T04:33:41;4.87;;;3.43;;
10458;SDS011;5277;48.722;8.736;2022-12-07T04:36:07;6.17;;;3.80;;
10458;SDS011;5277;48.722;8.736;2022-12-07T04:38:32;6.47;;;3.97;;
10458;SDS011;5277;48.722;8.736;2022-12-07T04:40:58;7.73;;;4.37;;
10458;SDS011;5277;48.722;8.736;2022-12-07T04:43:28;6.50;;;4.57;;
10458;SDS011;5277;48.722;8.736;2022-12-07T04:45:54;5.77;;;3.93;;
10458;SDS011;5277;48.722;8.736;2022-12-07T04:48:19;5.63;;;4.20;;
10458;SDS011;5277;48.722;8.736;2022-12-07T04:50:47;10.40;;;4.30;;
10458;SDS011;5277;48.722;8.736;2022-12-07T04:53:14;6.37;;;4.57;;
10458;SDS011;5277;48.722;8.736;2022-12-07T04:55:40;7.20;;;4.17;;
10458;SDS011;5277;48.722;8.736;2022-12-07T04:58:10;6.93;;;4.40;;
10458;SDS011;5277;48.722;8.736;2022-12-07T05:00:35;7.23;;;4.33;;
10458;SDS011;5277;48.722;8.736;2022-12-07T05:03:01;6.47;;;4.00;;
10458;SDS011;5277;48.722;8.736;2022-12-07T05:05:31;6.00;;;4.20;;
10458;SDS011;5277;48.722;8.736;2022-12-07T05:08:00;7.70;;;3.47;;
10458;SDS011;5277;48.722;8.736;2022-12-07T05:10:28;4.93;;;3.70;;
10458;SDS011;5277;48.722;8.736;2022-12-07T05:12:54;5.43;;;3.60;;
10458;SDS011;5277;48.722;8.736;2022-12-07T05:15:19;8.33;;;4.17;;
10458;SDS011;5277;48.722;8.736;2022-12-07T05:17:48;6.17;;;4.07;;
10458;SDS011;5277;48.722;8.736;2022-12-07T05:20:16;8.53;;;3.77;;
10458;SDS011;5277;48.722;8.736;2022-12-07T05:22:42;8.37;;;3.43;;
10458;SDS011;5277;48.722;8.736;2022-12-07T05:25:08;6.23;;;3.50;;
10458;SDS011;5277;48.722;8.736;2022-12-07T05:27:34;6.83;;;3.90;;
10458;SDS011;5277;48.722;8.736;2022-12-07T05:30:00;4.77;;;3.20;;
10458;SDS011;5277;48.722;8.736;2022-12-07T05:32:33;6.07;;;4.13;;
10458;SDS011;5277;48.722;8.736;2022-12-07T05:35:04;6.40;;;4.00;;
10458;SDS011;5277;48.722;8.736;2022-12-07T05:37:35;8.53;;;5.13;;
10458;SDS011;5277;48.722;8.736;2022-12-07T05:40:04;8.60;;;5.27;;
10458;SDS011;5277;48.722;8.736;2022-12-07T05:42:30;10.60;;;6.30;;
10458;SDS011;5277;48.722;8.736;2022-12-07T05:44:56;8.80;;;5.20;;
10458;SDS011;5277;48.722;8.736;2022-12-07T05:47:21;8.80;;;4.40;;
10458;SDS011;5277;48.722;8.736;2022-12-07T05:49:47;7.83;;;3.70;;
10458;SDS011;5277;48.722;8.736;2022-12-07T05:52:12;8.20;;;4.67;;
10458;SDS011;5277;48.722;8.736;2022-12-07T05:54:38;8.17;;;4.43;;
10458;SDS011;5277;48.722;8.736;2022-12-07T05:57:03;5.83;;;4.10;;
10458;SDS011;5277;48.722;8.736;2022-12-07T05:59:29;5.60;;;3.90;;
10458;SDS011;5277;48.722;8.736;2022-12-07T06:04:25;8.37;;;4.33;;
10458;SDS011;5277;48.722;8.736;2022-12-07T06:06:53;5.13;;;3.60;;
10458;SDS011;5277;48.722;8.736;2022-12-07T06:09:22;6.30;;;4.03;;
10458;SDS011;5277;48.722;8.736;2022-12-07T06:11:49;6.57;;;3.83;;
10458;SDS011;5277;48.722;8.736;2022-12-07T06:14:34;6.60;;;3.93;;
10458;SDS011;5277;48.722;8.736;2022-12-07T06:17:00;7.67;;;4.27;;
10458;SDS011;5277;48.722;8.736;2022-12-07T06:19:26;7.07;;;4.37;;
10458;SDS011;5277;48.722;8.736;2022-12-07T06:21:52;5.70;;;3.87;;
10458;SDS011;5277;48.722;8.736;2022-12-07T06:24:18;7.47;;;3.50;;
10458;SDS011;5277;48.722;8.736;2022-12-07T06:26:46;7.53;;;4.53;;
10458;SDS011;5277;48.722;8.736;2022-12-07T06:29:12;8.30;;;4.83;;
10458;SDS011;5277;48.722;8.736;2022-12-07T06:31:38;8.47;;;4.47;;
10458;SDS011;5277;48.722;8.736;2022-12-07T06:34:05;7.07;;;4.60;;
10458;SDS011;5277;48.722;8.736;2022-12-07T06:36:33;11.40;;;4.70;;
10458;SDS011;5277;48.722;8.736;2022-12-07T06:38:59;7.40;;;4.80;;
10458;SDS011;5277;48.722;8.736;2022-12-07T06:41:25;7.43;;;4.50;;
10458;SDS011;5277;48.722;8.736;2022-12-07T06:43:50;8.80;;;4.73;;
10458;SDS011;5277;48.722;8.736;2022-12-07T06:46:16;6.70;;;4.93;;
10458;SDS011;5277;48.722;8.736;2022-12-07T06:48:42;6.47;;;4.67;;
10458;SDS011;5277;48.722;8.736;2022-12-07T06:51:08;8.53;;;4.97;;
10458;SDS011;5277;48.722;8.736;2022-12-07T06:53:34;7.50;;;4.77;;
10458;SDS011;5277;48.722;8.736;2022-12-07T06:56:00;8.90;;;4.73;;
10458;SDS011;5277;48.722;8.736;2022-12-07T06:58:26;9.20;;;5.17;;
10458;SDS011;5277;48.722;8.736;2022-12-07T07:00:52;8.37;;;5.10;;
10458;SDS011;5277;48.722;8.736;2022-12-07T07:03:18;8.20;;;4.43;;
10458;SDS011;5277;48.722;8.736;2022-12-07T07:05:43;8.80;;;5.27;;
10458;SDS011;5277;48.722;8.736;2022-12-07T07:08:09;9.10;;;5.53;;
10458;SDS011;5277;48.722;8.736;2022-12-07T07:10:36;9.83;;;5.83;;
10458;SDS011;5277;48.722;8.736;2022-12-07T07:13:02;11.37;;;5.90;;
10458;SDS011;5277;48.722;8.736;2022-12-07T07:15:28;8.20;;;5.57;;
10458;SDS011;5277;48.722;8.736;2022-12-07T07:17:53;9.50;;;5.60;;
10458;SDS011;5277;48.722;8.736;2022-12-07T07:20:19;11.00;;;6.13;;
10458;SDS011;5277;48.722;8.736;2022-12-07T07:22:45;10.30;;;5.57;;
10458;SDS011;5277;48.722;8.736;2022-12-07T07:25:10;8.30;;;5.77;;
10458;SDS011;5277;48.722;8.736;2022-12-07T07:27:36;10.10;;;6.07;;
10458;SDS011;5277;48.722;8.736;2022-12-07T07:30:01;8.27;;;5.57;;
10458;SDS011;5277;48.722;8.736;2022-12-07T07:32:27;7.37;;;4.97;;
10458;SDS011;5277;48.722;8.736;2022-12-07T07:34:53;8.50;;;5.17;;
10458;SDS011;5277;48.722;8.736;2022-12-07T07:37:18;6.70;;;4.60;;
10458;SDS011;5277;48.722;8.736;2022-12-07T07:39:44;7.93;;;5.67;;
10458;SDS011;5277;48.722;8.736;2022-12-07T07:42:09;9.47;;;5.63;;
10458;SDS011;5277;48.722;8.736;2022-12-07T07:44:35;6.47;;;4.70;;
10458;SDS011;5277;48.722;8.736;2022-12-07T07:47:01;8.17;;;5.47;;
10458;SDS011;5277;48.722;8.736;2022-12-07T07:49:27;7.57;;;5.20;;
10458;SDS011;5277;48.722;8.736;2022-12-07T07:51:53;6.37;;;4.27;;
10458;SDS011;5277;48.722;8.736;2022-12-07T07:54:18;7.77;;;4.80;;
10458;SDS011;5277;48.722;8.736;2022-12-07T07:56:44;7.43;;;5.07;;
10458;SDS011;5277;48.722;8.736;2022-12-07T07:59:09;8.73;;;4.90;;
10458;SDS011;5277;48.722;8.736;2022-12-07T08:01:35;8.90;;;5.17;;
10458;SDS011;5277;48.722;8.736;2022-12-07T08:04:00;8.40;;;4.90;;
10458;SDS011;5277;48.722;8.736;2022-12-07T08:06:26;7.10;;;4.77;;
10458;SDS011;5277;48.722;8.736;2022-12-07T08:08:52;7.03;;;5.00;;
10458;SDS011;5277;48.722;8.736;2022-12-07T08:11:18;6.73;;;5.07;;
10458;SDS011;5277;48.722;8.736;2022-12-07T08:13:45;8.80;;;5.73;;
10458;SDS011;5277;48.722;8.736;2022-12-07T08:16:12;11.20;;;6.73;;
10458;SDS011;5277;48.722;8.736;2022-12-07T08:18:39;6.70;;;4.50;;
10458;SDS011;5277;48.722;8.736;2022-12-07T08:21:07;8.53;;;5.80;;
10458;SDS011;5277;48.722;8.736;2022-12-07T08:23:35;9.97;;;5.63;;
10458;SDS011;5277;48.722;8.736;2022-12-07T08:26:01;9.47;;;6.50;;
10458;SDS011;5277;48.722;8.736;2022-12-07T08:28:27;10.07;;;6.13;;
10458;SDS011;5277;48.722;8.736;2022-12-07T08:31:04;10.13;;;5.80;;
10458;SDS011;5277;48.722;8.736;2022-12-07T08:33:32;11.20;;;5.83;;
10458;SDS011;5277;48.722;8.736;2022-12-07T08:36:03;10.43;;;6.80;;
10458;SDS011;5277;48.722;8.736;2022-12-07T08:38:30;8.33;;;5.50;;
10458;SDS011;5277;48.722;8.736;2022-12-07T08:40:56;10.07;;;6.20;;
10458;SDS011;5277;48.722;8.736;2022-12-07T08:43:23;9.30;;;5.93;;
10458;SDS011;5277;48.722;8.736;2022-12-07T08:45:51;8.60;;;5.77;;
10458;SDS011;5277;48.722;8.736;2022-12-07T08:48:30;10.70;;;5.63;;
10458;SDS011;5277;48.722;8.736;2022-12-07T08:50:57;9.13;;;4.93;;
10458;SDS011;5277;48.722;8.736;2022-12-07T08:53:23;6.53;;;4.63;;
10458;SDS011;5277;48.722;8.736;2022-12-07T08:55:49;7.80;;;4.57;;
10458;SDS011;5277;48.722;8.736;2022-12-07T08:58:15;5.73;;;4.20;;
10458;SDS011;5277;48.722;8.736;2022-12-07T09:00:40;5.97;;;4.23;;
10458;SDS011;5277;48.722;8.736;2022-12-07T09:03:06;10.57;;;4.60;;
10458;SDS011;5277;48.722;8.736;2022-12-07T09:05:32;9.57;;;4.80;;
10458;SDS011;5277;48.722;8.736;2022-12-07T09:07:59;10.43;;;4.50;;
10458;SDS011;5277;48.722;8.736;2022-12-07T09:10:26;5.70;;;4.27;;
10458;SDS011;5277;48.722;8.736;2022-12-07T09:12:53;6.33;;;4.40;;
10458;SDS011;5277;48.722;8.736;2022-12-07T09:15:18;9.00;;;5.00;;
10458;SDS011;5277;48.722;8.736;2022-12-07T09:17:44;9.47;;;5.40;;
10458;SDS011;5277;48.722;8.736;2022-12-07T09:20:10;8.13;;;5.20;;
10458;SDS011;5277;48.722;8.736;2022-12-07T09:22:36;6.97;;;4.67;;
10458;SDS011;5277;48.722;8.736;2022-12-07T09:25:03;6.33;;;4.50;;
10458;SDS011;5277;48.722;8.736;2022-12-07T09:27:29;7.00;;;4.50;;
10458;SDS011;5277;48.722;8.736;2022-12-07T09:29:55;6.00;;;4.10;;
10458;SDS011;5277;48.722;8.736;2022-12-07T09:32:20;5.90;;;4.37;;
10458;SDS011;5277;48.722;8.736;2022-12-07T09:34:46;7.13;;;4.00;;
10458;SDS011;5277;48.722;8.736;2022-12-07T09:37:12;6.67;;;4.37;;
10458;SDS011;5277;48.722;8.736;2022-12-07T09:39:38;7.93;;;4.10;;
10458;SDS011;5277;48.722;8.736;2022-12-07T09:42:05;6.90;;;3.87;;
10458;SDS011;5277;48.722;8.736;2022-12-07T09:44:32;5.83;;;3.97;;
10458;SDS011;5277;48.722;8.736;2022-12-07T09:46:58;7.07;;;3.77;;
10458;SDS011;5277;48.722;8.736;2022-12-07T09:49:25;5.43;;;3.87;;
10458;SDS011;5277;48.722;8.736;2022-12-07T09:52:02;6.30;;;3.93;;
10458;SDS011;5277;48.722;8.736;2022-12-07T09:54:38;5.53;;;4.13;;
10458;SDS011;5277;48.722;8.736;2022-12-07T09:57:08;5.27;;;3.90;;
10458;SDS011;5277;48.722;8.736;2022-12-07T09:59:37;5.40;;;3.77;;
10458;SDS011;5277;48.722;8.736;2022-12-07T10:05:00;6.00;;;3.60;;
10458;SDS011;5277;48.722;8.736;2022-12-07T10:07:26;8.47;;;3.63;;
10458;SDS011;5277;48.722;8.736;2022-12-07T10:09:52;5.93;;;3.13;;
10458;SDS011;5277;48.722;8.736;2022-12-07T10:12:17;3.80;;;3.00;;
10458;SDS011;5277;48.722;8.736;2022-12-07T10:14:54;5.40;;;3.50;;
10458;SDS011;5277;48.722;8.736;2022-12-07T10:17:40;5.33;;;3.43;;
10458;SDS011;5277;48.722;8.736;2022-12-07T10:23:03;8.20;;;3.40;;
10458;SDS011;5277;48.722;8.736;2022-12-07T10:25:35;5.13;;;3.63;;
10458;SDS011;5277;48.722;8.736;2022-12-07T10:28:16;4.47;;;3.20;;
10458;SDS011;5277;48.722;8.736;2022-12-07T10:30:53;5.73;;;3.10;;
10458;SDS011;5277;48.722;8.736;2022-12-07T10:35:54;6.17;;;3.40;;
10458;SDS011;5277;48.722;8.736;2022-12-07T10:38:19;3.70;;;3.10;;
10458;SDS011;5277;48.722;8.736;2022-12-07T10:40:45;5.13;;;3.30;;
10458;SDS011;5277;48.722;8.736;2022-12-07T10:45:41;4.23;;;2.53;;
10458;SDS011;5277;48.722;8.736;2022-12-07T10:48:17;5.67;;;3.03;;
10458;SDS011;5277;48.722;8.736;2022-12-07T10:50:52;3.67;;;2.70;;
10458;SDS011;5277;48.722;8.736;2022-12-07T10:53:28;5.77;;;3.13;;
10458;SDS011;5277;48.722;8.736;2022-12-07T11:01:32;4.43;;;2.47;;
10458;SDS011;5277;48.722;8.736;2022-12-07T11:07:10;3.77;;;2.00;;
10458;SDS011;5277;48.722;8.736;2022-12-07T11:17:48;8.63;;;3.10;;
10458;SDS011;5277;48.722;8.736;2022-12-07T11:23:30;2.03;;;1.80;;
10458;SDS011;5277;48.722;8.736;2022-12-07T11:26:16;2.77;;;2.20;;
10458;SDS011;5277;48.722;8.736;2022-12-07T11:31:28;3.50;;;1.83;;
10458;SDS011;5277;48.722;8.736;2022-12-07T11:34:32;2.70;;;1.80;;
10458;SDS011;5277;48.722;8.736;2022-12-07T11:37:11;4.90;;;2.10;;
10458;SDS011;5277;48.722;8.736;2022-12-07T11:39:47;3.40;;;2.10;;
10458;SDS011;5277;48.722;8.736;2022-12-07T11:45:43;3.20;;;2.20;;
10458;SDS011;5277;48.722;8.736;2022-12-07T11:50:41;3.80;;;2.60;;
10458;SDS011;5277;48.722;8.736;2022-12-07T11:53:11;7.73;;;4.37;;
10458;SDS011;5277;48.722;8.736;2022-12-07T11:55:57;2.70;;;1.83;;
10458;SDS011;5277;48.722;8.736;2022-12-07T12:03:41;5.30;;;2.37;;
10458;SDS011;5277;48.722;8.736;2022-12-07T12:06:10;4.83;;;3.10;;
10458;SDS011;5277;48.722;8.736;2022-12-07T12:08:39;2.87;;;1.97;;
10458;SDS011;5277;48.722;8.736;2022-12-07T12:13:53;3.17;;;2.10;;
10458;SDS011;5277;48.722;8.736;2022-12-07T12:16:37;5.60;;;3.03;;
10458;SDS011;5277;48.722;8.736;2022-12-07T12:22:01;4.70;;;3.20;;
10458;SDS011;5277;48.722;8.736;2022-12-07T12:24:47;4.90;;;2.77;;
10458;SDS011;5277;48.722;8.736;2022-12-07T12:27:26;4.20;;;2.90;;
10458;SDS011;5277;48.722;8.736;2022-12-07T12:29:56;7.77;;;4.00;;
10458;SDS011;5277;48.722;8.736;2022-12-07T12:32:32;8.00;;;3.00;;
10458;SDS011;5277;48.722;8.736;2022-12-07T12:40:58;4.50;;;3.50;;
10458;SDS011;5277;48.722;8.736;2022-12-07T12:51:44;11.47;;;7.27;;
10458;SDS011;5277;48.722;8.736;2022-12-07T12:54:18;7.00;;;4.40;;
10458;SDS011;5277;48.722;8.736;2022-12-07T12:59:36;4.93;;;3.47;;
10458;SDS011;5277;48.722;8.736;2022-12-07T13:07:54;5.10;;;3.20;;
10458;SDS011;5277;48.722;8.736;2022-12-07T13:29:10;5.43;;;3.10;;
10458;SDS011;5277;48.722;8.736;2022-12-07T13:31:44;5.37;;;3.70;;
10458;SDS011;5277;48.722;8.736;2022-12-07T13:34:37;5.60;;;3.47;;
10458;SDS011;5277;48.722;8.736;2022-12-07T13:39:44;4.37;;;3.30;;
10458;SDS011;5277;48.722;8.736;2022-12-07T13:42:30;11.23;;;4.20;;
10458;SDS011;5277;48.722;8.736;2022-12-07T13:45:00;6.87;;;3.53;;
10458;SDS011;5277;48.722;8.736;2022-12-07T13:47:47;4.90;;;3.50;;
10458;SDS011;5277;48.722;8.736;2022-12-07T13:50:24;7.73;;;3.47;;
10458;SDS011;5277;48.722;8.736;2022-12-07T13:52:50;5.57;;;3.50;;
10458;SDS011;5277;48.722;8.736;2022-12-07T13:55:20;5.93;;;3.20;;
10458;SDS011;5277;48.722;8.736;2022-12-07T13:57:47;7.17;;;3.50;;
10458;SDS011;5277;48.722;8.736;2022-12-07T14:00:17;5.33;;;2.63;;
10458;SDS011;5277;48.722;8.736;2022-12-07T14:02:58;8.17;;;3.00;;
10458;SDS011;5277;48.722;8.736;2022-12-07T14:05:37;5.73;;;3.60;;
10458;SDS011;5277;48.722;8.736;2022-12-07T14:08:05;9.93;;;3.90;;
10458;SDS011;5277;48.722;8.736;2022-12-07T14:16:01;5.17;;;3.23;;
10458;SDS011;5277;48.722;8.736;2022-12-07T14:18:30;4.40;;;3.17;;
10458;SDS011;5277;48.722;8.736;2022-12-07T14:21:03;5.20;;;3.40;;
10458;SDS011;5277;48.722;8.736;2022-12-07T14:23:29;5.57;;;2.93;;
10458;SDS011;5277;48.722;8.736;2022-12-07T14:26:04;5.93;;;2.80;;
10458;SDS011;5277;48.722;8.736;2022-12-07T14:28:38;6.27;;;3.07;;
10458;SDS011;5277;48.722;8.736;2022-12-07T14:31:07;4.60;;;3.23;;
10458;SDS011;5277;48.722;8.736;2022-12-07T14:33:36;4.67;;;3.10;;
10458;SDS011;5277;48.722;8.736;2022-12-07T14:36:03;4.97;;;2.90;;
10458;SDS011;5277;48.722;8.736;2022-12-07T14:38:28;3.37;;;2.47;;
10458;SDS011;5277;48.722;8.736;2022-12-07T14:40:54;5.83;;;2.40;;
10458;SDS011;5277;48.722;8.736;2022-12-07T14:43:41;6.43;;;2.50;;
10458;SDS011;5277;48.722;8.736;2022-12-07T14:46:06;3.77;;;2.67;;
10458;SDS011;5277;48.722;8.736;2022-12-07T14:48:33;8.20;;;3.00;;
10458;SDS011;5277;48.722;8.736;2022-12-07T14:50:59;7.93;;;4.83;;
10458;SDS011;5277;48.722;8.736;2022-12-07T14:53:27;10.53;;;6.80;;
10458;SDS011;5277;48.722;8.736;2022-12-07T14:55:58;8.17;;;5.57;;
10458;SDS011;5277;48.722;8.736;2022-12-07T14:58:26;8.40;;;4.43;;
10458;SDS011;5277;48.722;8.736;2022-12-07T15:00:52;5.60;;;3.83;;
10458;SDS011;5277;48.722;8.736;2022-12-07T15:03:18;4.90;;;3.50;;
10458;SDS011;5277;48.722;8.736;2022-12-07T15:05:44;3.97;;;2.80;;
10458;SDS011;5277;48.722;8.736;2022-12-07T15:08:13;4.40;;;3.10;;
10458;SDS011;5277;48.722;8.736;2022-12-07T15:10:39;6.67;;;3.00;;
10458;SDS011;5277;48.722;8.736;2022-12-07T15:13:08;5.63;;;3.83;;
10458;SDS011;5277;48.722;8.736;2022-12-07T15:15:53;3.77;;;2.83;;
10458;SDS011;5277;48.722;8.736;2022-12-07T15:18:20;4.93;;;3.17;;
10458;SDS011;5277;48.722;8.736;2022-12-07T15:20:47;4.57;;;2.93;;
10458;SDS011;5277;48.722;8.736;2022-12-07T15:23:13;3.93;;;2.70;;
10458;SDS011;5277;48.722;8.736;2022-12-07T15:25:42;4.10;;;2.53;;
10458;SDS011;5277;48.722;8.736;2022-12-07T15:28:09;4.97;;;2.20;;
10458;SDS011;5277;48.722;8.736;2022-12-07T15:30:36;3.23;;;2.13;;
10458;SDS011;5277;48.722;8.736;2022-12-07T15:33:03;3.20;;;2.17;;
10458;SDS011;5277;48.722;8.736;2022-12-07T15:35:29;3.97;;;2.60;;
10458;SDS011;5277;48.722;8.736;2022-12-07T15:37:54;3.57;;;2.47;;
10458;SDS011;5277;48.722;8.736;2022-12-07T15:40:20;4.47;;;2.20;;
10458;SDS011;5277;48.722;8.736;2022-12-07T15:42:46;5.57;;;2.43;;
10458;SDS011;5277;48.722;8.736;2022-12-07T15:45:12;3.67;;;2.57;;
10458;SDS011;5277;48.722;8.736;2022-12-07T15:47:42;3.97;;;2.80;;
10458;SDS011;5277;48.722;8.736;2022-12-07T15:50:10;5.53;;;3.47;;
10458;SDS011;5277;48.722;8.736;2022-12-07T15:52:38;3.90;;;2.90;;
10458;SDS011;5277;48.722;8.736;2022-12-07T15:55:04;4.27;;;3.30;;
10458;SDS011;5277;48.722;8.736;2022-12-07T15:57:34;7.97;;;3.47;;
10458;SDS011;5277;48.722;8.736;2022-12-07T16:00:02;4.63;;;3.03;;
10458;SDS011;5277;48.722;8.736;2022-12-07T16:02:32;4.20;;;2.73;;
10458;SDS011;5277;48.722;8.736;2022-12-07T16:04:58;8.20;;;3.00;;
10458;SDS011;5277;48.722;8.736;2022-12-07T16:07:24;4.67;;;3.23;;
10458;SDS011;5277;48.722;8.736;2022-12-07T16:09:49;8.43;;;3.20;;
10458;SDS011;5277;48.722;8.736;2022-12-07T16:12:15;4.80;;;3.20;;
10458;SDS011;5277;48.722;8.736;2022-12-07T16:14:41;5.87;;;3.23;;
10458;SDS011;5277;48.722;8.736;2022-12-07T16:17:08;5.40;;;3.40;;
10458;SDS011;5277;48.722;8.736;2022-12-07T16:19:35;4.10;;;3.03;;
10458;SDS011;5277;48.722;8.736;2022-12-07T16:22:01;4.03;;;2.63;;
10458;SDS011;5277;48.722;8.736;2022-12-07T16:24:28;4.73;;;3.37;;
10458;SDS011;5277;48.722;8.736;2022-12-07T16:26:53;5.60;;;3.37;;
10458;SDS011;5277;48.722;8.736;2022-12-07T16:29:20;9.77;;;4.50;;
10458;SDS011;5277;48.722;8.736;2022-12-07T16:31:46;8.50;;;5.10;;
10458;SDS011;5277;48.722;8.736;2022-12-07T16:34:18;5.17;;;3.07;;
10458;SDS011;5277;48.722;8.736;2022-12-07T16:36:46;5.20;;;3.23;;
10458;SDS011;5277;48.722;8.736;2022-12-07T16:39:17;7.63;;;4.00;;
10458;SDS011;5277;48.722;8.736;2022-12-07T16:41:47;5.10;;;3.77;;
10458;SDS011;5277;48.722;8.736;2022-12-07T16:44:21;5.53;;;3.10;;
10458;SDS011;5277;48.722;8.736;2022-12-07T16:46:55;7.83;;;3.27;;
10458;SDS011;5277;48.722;8.736;2022-12-07T16:49:24;10.83;;;3.93;;
10458;SDS011;5277;48.722;8.736;2022-12-07T16:51:52;6.40;;;3.90;;
10458;SDS011;5277;48.722;8.736;2022-12-07T16:54:20;5.87;;;4.20;;
10458;SDS011;5277;48.722;8.736;2022-12-07T16:56:46;7.77;;;4.77;;
10458;SDS011;5277;48.722;8.736;2022-12-07T16:59:14;6.67;;;4.90;;
10458;SDS011;5277;48.722;8.736;2022-12-07T17:01:40;6.33;;;4.80;;
10458;SDS011;5277;48.722;8.736;2022-12-07T17:04:05;8.30;;;5.77;;
10458;SDS011;5277;48.722;8.736;2022-12-07T17:06:32;9.30;;;5.20;;
10458;SDS011;5277;48.722;8.736;2022-12-07T17:08:58;8.37;;;4.90;;
10458;SDS011;5277;48.722;8.736;2022-12-07T17:11:25;7.60;;;4.87;;
10458;SDS011;5277;48.722;8.736;2022-12-07T17:13:55;8.23;;;4.67;;
10458;SDS011;5277;48.722;8.736;2022-12-07T17:16:41;13.00;;;6.53;;
10458;SDS011;5277;48.722;8.736;2022-12-07T17:19:08;13.87;;;7.90;;